createdAt,value
2023-05-12T00:04:52.140Z,100073.00
2023-05-12T00:09:53.576Z,100076.72
2023-05-12T00:14:55.191Z,100075.28
2023-05-12T00:19:56.505Z,100075.28
2023-05-12T00:24:57.915Z,100074.66
2023-05-12T00:29:59.347Z,100075.50
2023-05-12T00:35:00.688Z,100069.88
2023-05-12T00:40:02.047Z,100069.69
2023-05-12T00:45:04.655Z,100065.06
2023-05-12T00:50:06.827Z,100057.38
2023-05-12T00:55:08.745Z,100057.38
2023-05-12T01:00:11.799Z,100054.25
2023-05-12T01:05:13.267Z,100066.06
2023-05-12T01:10:19.580Z,100057.56
2023-05-12T01:15:21.212Z,100063.59
2023-05-12T01:20:26.342Z,100060.91
2023-05-12T01:25:32.064Z,100067.97
2023-05-12T01:30:34.349Z,100067.38
2023-05-12T01:35:35.869Z,100072.56
2023-05-12T01:40:37.375Z,100069.03
2023-05-12T01:45:38.940Z,100069.25
2023-05-12T01:50:42.285Z,100087.28
2023-05-12T01:55:43.632Z,100102.28
2023-05-12T02:00:44.975Z,100105.19
2023-05-12T02:05:46.306Z,100120.56
2023-05-12T02:10:47.630Z,100132.22
2023-05-12T02:15:49.344Z,100122.22
2023-05-12T02:20:50.743Z,100119.50
2023-05-12T02:25:52.116Z,100127.78
2023-05-12T02:30:54.244Z,100130.88
2023-05-12T02:35:56.042Z,100133.78
2023-05-12T02:40:57.415Z,100140.88
2023-05-12T02:45:58.955Z,100135.03
2023-05-12T02:51:00.314Z,100129.63
2023-05-12T02:56:01.787Z,100138.78
2023-05-12T03:01:10.872Z,100138.81
2023-05-12T03:06:12.728Z,100145.88
2023-05-12T03:11:14.078Z,100143.19
2023-05-12T03:16:18.937Z,100140.50
2023-05-12T03:21:21.025Z,100144.25
2023-05-12T03:26:22.520Z,100155.75
2023-05-12T03:31:24.037Z,100150.97
2023-05-12T03:36:25.502Z,100151.59
2023-05-12T03:41:26.820Z,100145.34
2023-05-12T03:46:28.299Z,100141.59
2023-05-12T03:51:30.525Z,100127.69
2023-05-12T03:56:31.927Z,100132.66
2023-05-12T04:01:33.359Z,100137.66
2023-05-12T04:06:36.547Z,100139.72
2023-05-12T04:11:37.994Z,100149.72
2023-05-12T04:16:40.658Z,100152.00
2023-05-12T04:21:42.132Z,100161.16
2023-05-12T04:26:43.463Z,100156.56
2023-05-12T04:31:44.837Z,100161.56
2023-05-12T04:36:46.223Z,100165.31
2023-05-12T04:41:47.619Z,100168.03
2023-05-12T04:46:50.590Z,100174.69
2023-05-12T04:51:51.919Z,100180.75
2023-05-12T04:56:53.259Z,100173.88
2023-05-12T05:01:54.788Z,100187.41
2023-05-12T05:06:56.277Z,100198.03
2023-05-12T05:11:57.618Z,100198.66
2023-05-12T05:16:59.969Z,100203.84
2023-05-12T05:22:01.300Z,100205.31
2023-05-12T05:27:02.674Z,100213.22
2023-05-12T05:32:04.438Z,100211.97
2023-05-12T05:37:05.946Z,100220.47
2023-05-12T05:42:07.317Z,100224.63
2023-05-12T05:47:08.775Z,100226.31
2023-05-12T05:52:10.310Z,100223.25
2023-05-12T05:57:11.689Z,100231.78
2023-05-12T06:02:13.208Z,100229.72
2023-05-12T06:07:14.719Z,100237.63
2023-05-12T06:12:16.058Z,100249.09
2023-05-12T06:17:17.659Z,100261.56
2023-05-12T06:22:19.287Z,100263.06
2023-05-12T06:27:20.629Z,100272.84
2023-05-12T06:32:22.030Z,100264.09
2023-05-12T06:37:23.483Z,100273.47
2023-05-12T06:42:24.862Z,100260.97
2023-05-12T06:47:26.305Z,100273.28
2023-05-12T06:52:27.732Z,100267.44
2023-05-12T06:57:29.092Z,100270.53
2023-05-12T07:02:30.779Z,100264.47
2023-05-12T07:07:32.415Z,100270.91
2023-05-12T07:12:33.792Z,100270.94
2023-05-12T07:17:35.298Z,100278.22
2023-05-12T07:22:38.861Z,100281.53
2023-05-12T07:27:40.463Z,100286.34
2023-05-12T07:32:42.897Z,100285.91
2023-05-12T07:37:44.327Z,100290.75
2023-05-12T07:42:45.768Z,100288.03
2023-05-12T07:47:47.095Z,100286.34
2023-05-12T07:52:53.184Z,100282.59
2023-05-12T07:57:54.588Z,100285.31
2023-05-12T08:02:56.584Z,100286.34
2023-05-12T08:07:58.242Z,100280.91
2023-05-12T08:12:59.673Z,100282.53
2023-05-12T08:18:01.250Z,100288.09
2023-05-12T08:23:02.972Z,100282.81
2023-05-12T08:28:04.609Z,100268.53
2023-05-12T08:33:06.211Z,100284.25
2023-05-12T08:38:07.823Z,100276.59
2023-05-12T08:43:32.286Z,100279.22
2023-05-12T08:48:35.146Z,100277.06
2023-05-12T08:53:38.040Z,100275.50
2023-05-12T08:58:42.225Z,100280.38
2023-05-12T09:03:44.255Z,100281.28
2023-05-12T09:08:45.750Z,100283.94
2023-05-12T09:14:06.321Z,100274.56
2023-05-12T09:19:07.870Z,100277.13
2023-05-12T09:24:09.396Z,100281.59
2023-05-12T09:29:15.761Z,100273.69
2023-05-12T09:34:30.350Z,100264.47
2023-05-12T09:39:32.002Z,100277.53
2023-05-12T09:44:33.432Z,100258.88
2023-05-12T09:49:34.777Z,100254.91
2023-05-12T09:54:39.545Z,100256.72
2023-05-12T09:59:43.907Z,100259.44
2023-05-12T10:04:50.342Z,100264.88
2023-05-12T10:09:55.066Z,100284.16
2023-05-12T10:14:56.790Z,100270.81
2023-05-12T10:19:58.255Z,100269.28
2023-05-12T10:25:01.365Z,100270.09
2023-05-12T10:30:04.843Z,100278.78
2023-05-12T10:35:11.241Z,100281.63
2023-05-12T10:40:23.182Z,100280.19
2023-05-12T10:45:24.551Z,100283.69
2023-05-12T10:50:27.830Z,100278.44
2023-05-12T10:55:42.209Z,100278.41
2023-05-12T11:00:46.821Z,100273.00
2023-05-12T11:05:59.185Z,100283.94
2023-05-12T11:11:02.890Z,100277.00
2023-05-12T11:16:04.998Z,100279.56
2023-05-12T11:21:12.846Z,100282.66
2023-05-12T11:26:18.464Z,100288.72
2023-05-12T11:31:21.263Z,100293.00
2023-05-12T11:36:22.651Z,100294.44
2023-05-12T11:41:26.187Z,100294.78
2023-05-12T11:46:30.813Z,100296.75
2023-05-12T11:51:32.210Z,100295.47
2023-05-12T11:56:33.680Z,100307.50
2023-05-12T12:01:44.563Z,100302.00
2023-05-12T12:06:46.067Z,100314.31
2023-05-12T12:11:47.406Z,100305.03
2023-05-12T12:16:48.739Z,100312.50
2023-05-12T12:21:50.153Z,100308.88
2023-05-12T12:26:51.903Z,100309.69
2023-05-12T12:31:53.248Z,100307.16
2023-05-12T12:36:54.623Z,100311.97
2023-05-12T12:41:55.984Z,100315.09
2023-05-12T12:46:57.403Z,100308.19
2023-05-12T12:51:58.790Z,100308.16
2023-05-12T12:57:00.190Z,100309.75
2023-05-12T13:02:02.514Z,100313.88
2023-05-12T13:07:04.133Z,100309.66
2023-05-12T13:12:05.990Z,100309.94
2023-05-12T13:17:07.994Z,100307.97
2023-05-12T13:22:10.133Z,100303.09
2023-05-12T13:27:11.530Z,100306.38
2023-05-12T13:32:13.933Z,100302.44
2023-05-12T13:37:15.711Z,100300.84
2023-05-12T13:42:17.325Z,100310.94
2023-05-12T13:47:19.130Z,100312.03
2023-05-12T13:52:20.894Z,100312.09
2023-05-12T13:57:22.314Z,100307.38
2023-05-12T14:02:23.985Z,100297.69
2023-05-12T14:07:25.494Z,100316.06
2023-05-12T14:12:27.207Z,100306.94
2023-05-12T14:17:28.592Z,100312.81
2023-05-12T14:22:29.951Z,100307.47
2023-05-12T14:27:31.299Z,100319.59
2023-05-12T14:32:34.154Z,100314.28
2023-05-12T14:37:35.736Z,100308.59
2023-05-12T14:42:37.890Z,100317.97
2023-05-12T14:47:39.435Z,100307.69
2023-05-12T14:52:40.806Z,100312.66
2023-05-12T14:57:42.659Z,100310.97
2023-05-12T15:02:45.344Z,100313.44
2023-05-12T15:07:46.768Z,100318.50
2023-05-12T15:12:48.137Z,100308.88
2023-05-12T15:17:49.559Z,100319.94
2023-05-12T15:22:52.182Z,100326.41
2023-05-12T15:27:53.506Z,100320.44
2023-05-12T15:32:55.020Z,100318.72
2023-05-12T15:37:56.389Z,100328.66
2023-05-12T15:42:57.883Z,100327.16
2023-05-12T15:47:59.295Z,100326.44
2023-05-12T15:53:01.013Z,100348.91
2023-05-12T15:58:04.026Z,100350.09
2023-05-12T16:03:05.683Z,100343.91
2023-05-12T16:08:07.162Z,100357.06
2023-05-12T16:13:08.831Z,100339.56
2023-05-12T16:18:11.391Z,100347.56
2023-05-12T16:23:13.202Z,100338.97
2023-05-12T16:28:14.624Z,100351.69
2023-05-12T16:33:16.008Z,100351.63
2023-05-12T16:38:17.340Z,100349.38
2023-05-12T16:43:18.765Z,100352.59
2023-05-12T16:48:20.216Z,100352.94
2023-05-12T16:53:21.885Z,100360.09
2023-05-12T16:58:23.715Z,100365.81
2023-05-12T17:03:25.946Z,100373.78
2023-05-12T17:08:27.454Z,100385.88
2023-05-12T17:13:28.915Z,100389.31
2023-05-12T17:18:30.945Z,100386.72
2023-05-12T17:23:32.369Z,100393.94
2023-05-12T17:28:33.744Z,100394.31
2023-05-12T17:33:35.176Z,100389.97
2023-05-12T17:38:37.202Z,100381.06
2023-05-12T17:43:38.584Z,100382.84
2023-05-12T17:48:40.277Z,100379.22
2023-05-12T17:53:41.734Z,100391.91
2023-05-12T17:58:43.083Z,100394.03
2023-05-12T18:03:44.495Z,100396.41
2023-05-12T18:08:46.509Z,100403.22
2023-05-12T18:13:48.197Z,100406.22
2023-05-12T18:18:49.645Z,100426.59
2023-05-12T18:23:51.253Z,100427.84
2023-05-12T18:28:52.828Z,100434.19
2023-05-12T18:33:54.367Z,100425.47
2023-05-12T18:38:55.790Z,100433.44
2023-05-12T18:43:57.177Z,100437.09
2023-05-12T18:48:58.554Z,100445.16
2023-05-12T18:53:59.948Z,100460.66
2023-05-12T18:59:01.356Z,100458.00
2023-05-12T19:04:03.620Z,100468.72
2023-05-12T19:09:05.085Z,100454.88
2023-05-12T19:14:06.942Z,100461.63
2023-05-12T19:19:08.386Z,100469.38
2023-05-12T19:24:10.543Z,100477.16
2023-05-12T19:29:12.003Z,100489.56
2023-05-12T19:34:13.376Z,100494.44
2023-05-12T19:39:14.825Z,100486.31
2023-05-12T19:44:16.174Z,100486.75
2023-05-12T19:49:17.637Z,100495.59
2023-05-12T19:54:19.115Z,100488.97
2023-05-12T19:59:20.573Z,100492.38
2023-05-12T20:04:23.038Z,100491.13
2023-05-12T20:09:27.045Z,100497.38
2023-05-12T20:14:28.467Z,100504.28
2023-05-12T20:19:29.803Z,100504.88
2023-05-12T20:24:31.192Z,100502.41
2023-05-12T20:29:32.580Z,100514.91
2023-05-12T20:34:33.952Z,100505.28
2023-05-12T20:39:35.252Z,100508.84
2023-05-12T20:44:36.772Z,100500.88
2023-05-12T20:49:38.450Z,100506.91
2023-05-12T20:54:39.807Z,100503.53
2023-05-12T20:59:41.159Z,100508.13
2023-05-12T21:04:42.503Z,100506.06
2023-05-12T21:09:43.954Z,100513.25
2023-05-12T21:14:45.392Z,100514.66
2023-05-12T21:19:46.815Z,100520.69
2023-05-12T21:29:50.013Z,100519.41
2023-05-12T21:34:51.465Z,100520.03
2023-05-12T21:39:52.913Z,100527.06
2023-05-12T21:44:54.344Z,100524.53
2023-05-12T21:49:56.749Z,100529.91
2023-05-12T21:54:58.124Z,100534.44
2023-05-12T22:00:03.826Z,100534.38
2023-05-12T22:05:05.718Z,100539.25
2023-05-12T22:10:07.535Z,100538.09
2023-05-12T22:15:09.196Z,100544.25
2023-05-12T22:20:11.141Z,100541.56
2023-05-12T22:25:12.483Z,100546.56
2023-05-12T22:30:14.135Z,100551.78
2023-05-12T22:35:16.234Z,100560.03
2023-05-12T22:40:17.647Z,100575.22
2023-05-12T22:45:19.126Z,100576.00
2023-05-12T22:50:20.852Z,100570.31
2023-05-12T22:55:30.235Z,100568.00
2023-05-12T23:00:31.619Z,100572.38
2023-05-12T23:05:33.159Z,100577.78
2023-05-12T23:10:34.874Z,100597.41
2023-05-12T23:15:36.281Z,100609.97
2023-05-12T23:20:37.689Z,100600.91
2023-05-12T23:25:39.011Z,100586.53
2023-05-12T23:30:40.398Z,100567.75
2023-05-12T23:35:42.024Z,100551.69
2023-05-12T23:40:43.383Z,100543.94
2023-05-12T23:45:45.166Z,100528.63
2023-05-12T23:50:46.589Z,100526.94
2023-05-12T23:55:47.946Z,100528.09
